Time;durP1;ratioP1;P1;durP2;ratioP2;P2;SDS_P1;SDS_P2;PMS_P1;PMS_P2;Temp;Humidity;BMP_temperature;BMP_pressure;BME280_temperature;BME280_humidity;BME280_pressure;Samples;Min_cycle;Max_cycle;Signal;HPM_P1;HPM_P2
2022/06/05 00:00:15;;;;;;;;;;;;;;;28.58;47.47;99269.25;4453150;32;33469;-85
2022/06/05 00:02:45;;;;;;;;;;;;;;;28.72;46.98;99268.44;4467071;32;34136;-86
2022/06/05 00:05:15;;;;;;;;;;;;;;;28.74;46.83;99266.50;4466975;32;34745;-86
2022/06/05 00:08:04;;;;;;;;;;;;;;;28.95;46.44;99265.22;4452594;32;33994;-85
2022/06/05 00:10:34;;;;;;;;;;;;;;;29.27;45.66;99273.06;4453173;32;33366;-86
2022/06/05 00:13:04;;;;;;;;;;;;;;;29.25;45.69;99267.84;4466679;32;34043;-85
2022/06/05 00:15:32;;;;;;;;;;;;;;;29.00;46.33;99265.81;4453124;32;34160;-85
2022/06/05 00:18:00;;;;;;;;;;;;;;;29.15;45.97;99265.81;4466682;32;35273;-84
2022/06/05 00:20:27;;;;;;;;;;;;;;;29.40;45.20;99257.13;4467386;32;33587;-84
2022/06/05 00:22:54;;;;;;;;;;;;;;;29.61;44.63;99262.94;4467281;32;33721;-85
2022/06/05 00:25:22;;;;;;;;;;;;;;;29.76;44.18;99257.47;4466258;32;33976;-86
2022/06/05 00:27:57;;;;;;;;;;;;;;;29.20;45.66;99248.56;4452583;32;34910;-85
2022/06/05 00:30:53;;;;;;;;;;;;;;;28.72;46.94;99249.75;4453289;32;33167;-84
2022/06/05 00:33:32;;;;;;;;;;;;;;;28.60;47.04;99251.31;4452782;32;34025;-84
2022/06/05 00:36:18;;;;;;;;;;;;;;;28.28;47.60;99255.88;4452773;32;35157;-85
2022/06/05 00:38:59;;;;;;;;;;;;;;;28.03;48.20;99246.63;4460548;32;34419;-85
2022/06/05 00:41:29;;;;;;;;;;;;;;;27.80;48.57;99244.44;4452102;32;34374;-86
2022/06/05 00:43:58;;;;;;;;;;;;;;;26.75;51.12;99240.38;4452186;32;34920;-86
2022/06/05 00:46:25;;;;;;;;;;;;;;;27.11;50.19;99233.09;4451110;32;34205;-86
2022/06/05 00:48:53;;;;;;;;;;;;;;;26.98;50.43;99241.81;4465919;32;34007;-83
2022/06/05 00:51:20;;;;;;;;;;;;;;;26.56;51.57;99238.66;4452719;32;33956;-83
2022/06/05 00:53:49;;;;;;;;;;;;;;;26.40;52.06;99243.00;4470411;32;34402;-81
2022/06/05 00:56:16;;;;;;;;;;;;;;;25.77;53.81;99238.13;4467082;32;33965;-82
2022/06/05 00:58:44;;;;;;;;;;;;;;;25.83;53.82;99236.97;4466387;32;34536;-82
2022/06/05 01:01:11;;;;;;;;;;;;;;;26.81;50.87;99229.38;4466418;32;33421;-81
2022/06/05 01:03:38;;;;;;;;;;;;;;;26.99;50.39;99233.72;4457793;32;34037;-82
2022/06/05 01:06:06;;;;;;;;;;;;;;;27.25;49.49;99227.03;4452655;32;35373;-83
2022/06/05 01:08:33;;;;;;;;;;;;;;;26.95;50.42;99224.19;4466305;32;34095;-84
2022/06/05 01:11:08;;;;;;;;;;;;;;;27.14;49.93;99219.62;4481062;32;33228;-86
2022/06/05 01:13:55;;;;;;;;;;;;;;;26.61;51.20;99220.66;4460474;32;35106;-85
2022/06/05 01:16:22;;;;;;;;;;;;;;;26.91;50.44;99218.19;4466714;32;33677;-85
2022/06/05 01:19:09;;;;;;;;;;;;;;;26.34;51.99;99217.59;4466708;32;34835;-85
2022/06/05 01:21:48;;;;;;;;;;;;;;;26.77;50.88;99220.72;4466570;32;34429;-84
2022/06/05 01:24:34;;;;;;;;;;;;;;;26.95;50.19;99218.03;4475518;32;34340;-85
2022/06/05 01:27:02;;;;;;;;;;;;;;;26.69;50.75;99222.91;4473364;32;35360;-83
2022/06/05 01:29:37;;;;;;;;;;;;;;;27.19;49.15;99215.84;4466608;32;34486;-84
2022/06/05 01:32:11;;;;;;;;;;;;;;;26.73;50.65;99220.97;4481544;32;33593;-85
2022/06/05 01:34:47;;;;;;;;;;;;;;;26.60;50.90;99218.09;4460046;32;33725;-84
2022/06/05 01:37:15;;;;;;;;;;;;;;;26.78;50.56;99224.22;4461031;32;34220;-85
2022/06/05 01:39:43;;;;;;;;;;;;;;;26.98;49.94;99221.38;4467843;32;34880;-85
2022/06/05 01:42:15;;;;;;;;;;;;;;;27.04;49.90;99228.16;4471330;32;33675;-86
2022/06/05 01:44:43;;;;;;;;;;;;;;;27.34;49.16;99225.66;4463626;32;33776;-85
2022/06/05 01:47:15;;;;;;;;;;;;;;;26.99;49.99;99220.44;4458002;32;33796;-85
2022/06/05 01:49:44;;;;;;;;;;;;;;;27.16;49.24;99227.53;4452609;32;35075;-84
2022/06/05 01:52:18;;;;;;;;;;;;;;;26.85;50.17;99222.97;4467381;32;33677;-85
2022/06/05 01:54:45;;;;;;;;;;;;;;;27.14;49.38;99216.97;4467588;32;33821;-83
2022/06/05 01:57:14;;;;;;;;;;;;;;;27.24;48.97;99216.44;4472227;32;33832;-84
2022/06/05 01:59:46;;;;;;;;;;;;;;;27.28;49.10;99218.03;4463262;32;34283;-84
2022/06/05 02:02:15;;;;;;;;;;;;;;;27.83;47.48;99217.63;4467997;32;33174;-85
2022/06/05 02:04:43;;;;;;;;;;;;;;;27.65;48.08;99225.69;4466959;32;34993;-85
2022/06/05 02:07:37;;;;;;;;;;;;;;;27.69;48.16;99226.34;4469981;32;33854;-84
2022/06/05 02:10:06;;;;;;;;;;;;;;;28.00;47.36;99220.19;4469304;32;34597;-84
2022/06/05 02:12:33;;;;;;;;;;;;;;;28.14;47.03;99212.22;4467909;32;33305;-85
2022/06/05 02:15:01;;;;;;;;;;;;;;;28.58;45.97;99223.91;4467791;32;32501;-85
2022/06/05 02:17:29;;;;;;;;;;;;;;;28.50;45.91;99224.37;4467888;32;34054;-83
2022/06/05 02:19:58;;;;;;;;;;;;;;;28.87;45.07;99227.47;4468405;32;34730;-84
2022/06/05 02:22:30;;;;;;;;;;;;;;;29.05;44.56;99221.00;4454006;32;33126;-85
2022/06/05 02:24:57;;;;;;;;;;;;;;;29.04;44.60;99223.78;4454214;32;34900;-84
2022/06/05 02:27:25;;;;;;;;;;;;;;;29.23;43.87;99221.66;4467921;32;34503;-85
2022/06/05 02:29:52;;;;;;;;;;;;;;;29.22;43.69;99216.44;4467980;32;34302;-85
2022/06/05 02:32:20;;;;;;;;;;;;;;;29.22;43.64;99213.75;4453944;32;33696;-85
2022/06/05 02:34:53;;;;;;;;;;;;;;;28.65;44.85;99217.25;4468133;32;33846;-85
2022/06/05 02:37:29;;;;;;;;;;;;;;;29.03;43.87;99206.91;4468062;32;34600;-84
2022/06/05 02:39:59;;;;;;;;;;;;;;;27.74;47.15;99197.69;4468367;32;35243;-85
2022/06/05 02:42:27;;;;;;;;;;;;;;;26.68;50.57;99210.56;4467717;32;34510;-85
2022/06/05 02:45:17;;;;;;;;;;;;;;;27.08;49.22;99205.75;4466562;32;34237;-85
2022/06/05 02:47:51;;;;;;;;;;;;;;;26.67;50.64;99214.19;4458031;32;34116;-85
2022/06/05 02:50:21;;;;;;;;;;;;;;;27.28;49.00;99218.03;4467543;32;34591;-85
2022/06/05 02:52:49;;;;;;;;;;;;;;;27.85;47.36;99208.59;4457616;32;33777;-84
2022/06/05 02:55:17;;;;;;;;;;;;;;;28.23;46.36;99212.66;4453663;32;34364;-86
2022/06/05 02:57:45;;;;;;;;;;;;;;;28.47;45.51;99202.34;4453958;32;34176;-86
2022/06/05 03:00:13;;;;;;;;;;;;;;;28.43;45.35;99219.50;4467828;32;34079;-85
2022/06/05 03:05:27;;;;;;;;;;;;;;;28.60;44.59;99214.88;4467579;32;34284;-86
2022/06/05 03:07:54;;;;;;;;;;;;;;;28.62;44.36;99217.44;4453198;32;34963;-85
2022/06/05 03:10:21;;;;;;;;;;;;;;;28.74;43.94;99222.00;4477071;32;34100;-85
2022/06/05 03:12:49;;;;;;;;;;;;;;;28.85;43.67;99218.69;4477700;32;33157;-85
2022/06/05 03:15:16;;;;;;;;;;;;;;;28.69;43.99;99218.78;4468189;32;33866;-86
2022/06/05 03:17:43;;;;;;;;;;;;;;;29.00;43.29;99217.78;4467898;32;35253;-85
2022/06/05 03:20:12;;;;;;;;;;;;;;;28.73;44.02;99219.44;4453975;32;34467;-85
2022/06/05 03:22:40;;;;;;;;;;;;;;;28.81;43.99;99225.16;4453016;32;33664;-85
2022/06/05 03:25:07;;;;;;;;;;;;;;;28.82;43.88;99218.88;4467656;32;34701;-85
2022/06/05 03:27:35;;;;;;;;;;;;;;;28.80;43.82;99218.97;4463891;32;34449;-85
2022/06/05 03:30:02;;;;;;;;;;;;;;;28.78;43.78;99218.19;4464889;32;35242;-85
2022/06/05 03:32:30;;;;;;;;;;;;;;;28.91;43.53;99223.66;4465925;32;33737;-85
2022/06/05 03:34:58;;;;;;;;;;;;;;;28.91;43.61;99228.12;4455316;32;34249;-85
2022/06/05 03:37:25;;;;;;;;;;;;;;;28.88;43.51;99239.00;4453722;32;34069;-84
2022/06/05 03:39:52;;;;;;;;;;;;;;;28.76;44.11;99240.59;4463970;32;34293;-83
2022/06/05 03:42:20;;;;;;;;;;;;;;;28.82;43.85;99249.06;4475392;32;33662;-85
2022/06/05 03:44:47;;;;;;;;;;;;;;;29.01;43.58;99251.50;4467503;32;34007;-85
2022/06/05 03:47:14;;;;;;;;;;;;;;;29.13;43.25;99254.37;4467586;32;33406;-86
2022/06/05 03:49:42;;;;;;;;;;;;;;;29.15;43.36;99256.00;4467381;32;35320;-86
2022/06/05 03:52:10;;;;;;;;;;;;;;;29.21;43.47;99268.09;4467774;32;33651;-85
2022/06/05 03:54:37;;;;;;;;;;;;;;;29.24;43.51;99267.91;4466833;32;34242;-84
2022/06/05 03:57:06;;;;;;;;;;;;;;;29.21;43.68;99277.00;4467660;32;34361;-86
2022/06/05 03:59:34;;;;;;;;;;;;;;;29.06;44.15;99278.78;4453569;32;34481;-84
2022/06/05 04:02:01;;;;;;;;;;;;;;;29.08;44.17;99284.87;4453065;32;33814;-85
2022/06/05 04:04:29;;;;;;;;;;;;;;;29.23;43.87;99280.41;4467062;32;34150;-84
2022/06/05 04:06:56;;;;;;;;;;;;;;;29.44;44.15;99285.37;4464006;32;34446;-84
2022/06/05 04:09:23;;;;;;;;;;;;;;;29.90;42.85;99283.31;4480901;31;34271;-85
2022/06/05 04:11:51;;;;;;;;;;;;;;;29.96;42.77;99288.25;4472902;32;33424;-86
2022/06/05 04:14:18;;;;;;;;;;;;;;;29.94;42.71;99290.19;4483037;32;34076;-85
2022/06/05 04:16:45;;;;;;;;;;;;;;;29.98;43.01;99291.69;4468842;32;34520;-85
2022/06/05 04:19:13;;;;;;;;;;;;;;;29.52;43.97;99302.63;4482983;32;35208;-84
2022/06/05 04:21:41;;;;;;;;;;;;;;;28.23;47.24;99305.94;4481850;32;33758;-85
2022/06/05 04:24:08;;;;;;;;;;;;;;;28.30;47.25;99310.00;4483235;32;33840;-85
2022/06/05 04:26:36;;;;;;;;;;;;;;;28.67;46.51;99306.03;4458732;32;35233;-85
2022/06/05 04:29:03;;;;;;;;;;;;;;;28.78;46.08;99305.41;4476759;32;34324;-86
2022/06/05 04:31:35;;;;;;;;;;;;;;;28.17;47.61;99312.47;4490599;31;34335;-85
2022/06/05 04:34:05;;;;;;;;;;;;;;;28.69;46.49;99313.97;4482651;32;33856;-85
2022/06/05 04:36:32;;;;;;;;;;;;;;;28.46;47.03;99315.31;4468824;32;34312;-85
2022/06/05 04:39:00;;;;;;;;;;;;;;;27.63;49.20;99323.44;4482883;32;35099;-84
2022/06/05 04:41:27;;;;;;;;;;;;;;;26.34;52.77;99328.38;4482641;32;33388;-85
2022/06/05 04:43:54;;;;;;;;;;;;;;;26.09;53.96;99316.28;4482109;32;33986;-83
2022/06/05 04:46:23;;;;;;;;;;;;;;;24.78;57.68;99316.94;4482869;32;35232;-83
2022/06/05 04:48:51;;;;;;;;;;;;;;;26.38;53.32;99324.63;4482081;32;34046;-86
2022/06/05 04:51:19;;;;;;;;;;;;;;;25.70;55.77;99325.16;4478134;32;34489;-85
2022/06/05 04:53:46;;;;;;;;;;;;;;;25.61;55.82;99328.28;4467767;32;35231;-84
2022/06/05 04:56:15;;;;;;;;;;;;;;;25.48;56.13;99335.91;4466623;32;35130;-85
2022/06/05 04:58:42;;;;;;;;;;;;;;;25.23;56.82;99336.19;4482630;32;35297;-85
2022/06/05 05:01:13;;;;;;;;;;;;;;;26.17;54.42;99338.00;4467855;32;33625;-84
2022/06/05 05:03:41;;;;;;;;;;;;;;;26.60;53.24;99335.94;4467286;32;33475;-86
2022/06/05 05:06:09;;;;;;;;;;;;;;;27.25;51.40;99345.97;4439728;32;861350;-86
2022/06/05 05:08:37;;;;;;;;;;;;;;;27.14;51.43;99341.19;4466706;32;34317;-87
2022/06/05 05:11:06;;;;;;;;;;;;;;;26.91;52.06;99348.53;4452760;32;33340;-87
2022/06/05 05:13:33;;;;;;;;;;;;;;;27.01;51.78;99354.25;4474040;32;34251;-84
2022/06/05 05:16:00;;;;;;;;;;;;;;;26.06;54.49;99360.72;4466671;32;33965;-86
2022/06/05 05:18:27;;;;;;;;;;;;;;;26.51;53.33;99365.62;4470825;32;34185;-85
2022/06/05 05:20:58;;;;;;;;;;;;;;;27.09;51.90;99373.34;4490094;31;33042;-86
2022/06/05 05:23:25;;;;;;;;;;;;;;;26.80;52.80;99376.63;4467735;32;34299;-84
2022/06/05 05:25:52;;;;;;;;;;;;;;;27.12;51.70;99381.22;4481908;32;35243;-83
2022/06/05 05:28:20;;;;;;;;;;;;;;;26.63;52.30;99388.09;4475593;32;34427;-83
2022/06/05 05:30:47;;;;;;;;;;;;;;;25.81;54.58;99392.91;4477067;32;34442;-84
2022/06/05 05:33:14;;;;;;;;;;;;;;;26.61;52.89;99396.16;4473974;32;32834;-84
2022/06/05 05:35:42;;;;;;;;;;;;;;;25.91;54.33;99394.19;4484497;32;34304;-84
2022/06/05 05:38:09;;;;;;;;;;;;;;;26.14;54.05;99390.47;4482330;32;35201;-85
2022/06/05 05:43:23;;;;;;;;;;;;;;;25.33;55.93;99392.34;4479939;32;34815;-84
2022/06/05 05:45:50;;;;;;;;;;;;;;;25.67;55.35;99397.00;4484273;32;34495;-85
2022/06/05 05:48:18;;;;;;;;;;;;;;;24.94;57.21;99394.91;4484325;32;35176;-84
2022/06/05 05:50:52;;;;;;;;;;;;;;;23.89;60.56;99392.88;4483361;32;33609;-86
2022/06/05 05:53:19;;;;;;;;;;;;;;;25.43;56.19;99391.00;4483843;32;34326;-85
2022/06/05 05:55:47;;;;;;;;;;;;;;;25.26;56.32;99382.91;4484117;32;35274;-85
2022/06/05 05:58:14;;;;;;;;;;;;;;;26.07;54.28;99387.25;4483767;32;35411;-84
2022/06/05 06:00:41;;;;;;;;;;;;;;;25.27;55.98;99383.78;4483816;32;34519;-84
2022/06/05 06:03:09;;;;;;;;;;;;;;;25.22;55.90;99389.28;4482050;32;34049;-85
2022/06/05 06:05:36;;;;;;;;;;;;;;;24.94;56.99;99385.16;4475255;32;35027;-86
2022/06/05 06:08:03;;;;;;;;;;;;;;;25.22;55.95;99374.22;4464129;31;34259;-87
2022/06/05 06:10:31;;;;;;;;;;;;;;;26.13;52.99;99386.06;4484889;31;33483;-84
2022/06/05 06:12:58;;;;;;;;;;;;;;;25.87;53.73;99381.97;4483547;32;34238;-86
2022/06/05 06:15:25;;;;;;;;;;;;;;;25.98;53.32;99379.69;4484080;32;34311;-85
2022/06/05 06:17:53;;;;;;;;;;;;;;;24.92;56.42;99383.47;4469496;32;34516;-84
2022/06/05 06:20:20;;;;;;;;;;;;;;;23.90;58.74;99393.75;4477034;32;33661;-84
2022/06/05 06:22:47;;;;;;;;;;;;;;;24.39;57.81;99382.13;4476983;32;34102;-85
2022/06/05 06:25:14;;;;;;;;;;;;;;;25.58;54.65;99370.03;4484044;32;34545;-85
2022/06/05 06:27:42;;;;;;;;;;;;;;;24.33;57.63;99374.41;4483803;32;34392;-84
2022/06/05 06:30:10;;;;;;;;;;;;;;;24.37;58.09;99377.81;4482014;32;33647;-86
2022/06/05 06:32:38;;;;;;;;;;;;;;;25.19;56.08;99360.25;4480432;32;34153;-83
2022/06/05 06:35:05;;;;;;;;;;;;;;;25.53;54.37;99364.03;4483798;32;34271;-85
2022/06/05 06:37:33;;;;;;;;;;;;;;;26.28;53.10;99365.88;4469679;32;34604;-81
2022/06/05 06:40:00;;;;;;;;;;;;;;;25.76;52.95;99368.28;4482051;32;34538;-83
2022/06/05 06:42:27;;;;;;;;;;;;;;;25.08;54.42;99373.06;4467174;32;34334;-84
2022/06/05 06:44:56;;;;;;;;;;;;;;;24.99;55.16;99377.00;4469513;32;34089;-83
2022/06/05 06:47:24;;;;;;;;;;;;;;;25.34;54.79;99366.66;4483720;32;34284;-84
2022/06/05 06:49:52;;;;;;;;;;;;;;;26.11;52.48;99364.91;4479007;32;34364;-84
2022/06/05 06:52:19;;;;;;;;;;;;;;;26.26;51.91;99357.12;4465935;32;34916;-83
2022/06/05 06:54:48;;;;;;;;;;;;;;;27.06;50.92;99357.53;4476177;32;34557;-84
2022/06/05 06:57:16;;;;;;;;;;;;;;;25.69;52.87;99350.00;4483064;32;34011;-84
2022/06/05 06:59:43;;;;;;;;;;;;;;;25.80;53.72;99359.28;4483744;32;33789;-85
2022/06/05 07:02:10;;;;;;;;;;;;;;;26.39;52.09;99353.78;4475682;32;34194;-85
2022/06/05 07:04:38;;;;;;;;;;;;;;;26.56;50.67;99355.66;4482831;32;34476;-82
2022/06/05 07:07:05;;;;;;;;;;;;;;;26.95;49.69;99351.06;4483104;32;35073;-83
2022/06/05 07:09:32;;;;;;;;;;;;;;;26.48;51.07;99347.19;4483432;32;33768;-84
2022/06/05 07:12:00;;;;;;;;;;;;;;;26.43;51.35;99357.16;4483233;32;33515;-85
2022/06/05 07:14:27;;;;;;;;;;;;;;;27.01;49.80;99346.28;4483663;32;34524;-84
2022/06/05 07:16:55;;;;;;;;;;;;;;;26.44;51.22;99350.88;4483790;32;34317;-83
2022/06/05 07:19:23;;;;;;;;;;;;;;;26.62;50.71;99344.69;4483070;32;32719;-84
2022/06/05 07:21:50;;;;;;;;;;;;;;;26.46;50.86;99345.53;4482474;32;34604;-84
2022/06/05 07:24:17;;;;;;;;;;;;;;;26.01;52.17;99345.00;4483219;32;35374;-84
2022/06/05 07:26:45;;;;;;;;;;;;;;;25.86;52.57;99343.06;4479341;32;33007;-84
2022/06/05 07:29:12;;;;;;;;;;;;;;;25.92;52.04;99342.81;4483509;32;33456;-82
2022/06/05 07:31:40;;;;;;;;;;;;;;;25.77;52.33;99352.31;4483245;32;34297;-82
2022/06/05 07:34:08;;;;;;;;;;;;;;;26.31;51.71;99345.31;4482739;32;34021;-82
2022/06/05 07:36:35;;;;;;;;;;;;;;;26.46;50.74;99358.84;4474399;32;35516;-82
2022/06/05 07:39:03;;;;;;;;;;;;;;;26.83;50.02;99350.75;4482009;31;34670;-82
2022/06/05 07:41:31;;;;;;;;;;;;;;;26.31;50.74;99353.28;4463316;32;33985;-83
2022/06/05 07:44:00;;;;;;;;;;;;;;;27.28;49.15;99349.31;4467468;32;34087;-84
2022/06/05 07:46:29;;;;;;;;;;;;;;;27.27;48.95;99357.38;4467718;32;34714;-81
2022/06/05 07:48:56;;;;;;;;;;;;;;;26.71;50.11;99358.47;4477939;32;34490;-84
2022/06/05 07:54:37;;;;;;;;;;;;;;;27.01;49.26;99362.25;4481881;32;35290;-82
2022/06/05 07:57:12;;;;;;;;;;;;;;;28.03;46.86;99363.88;4478063;32;35201;-83
2022/06/05 07:59:40;;;;;;;;;;;;;;;27.85;47.50;99363.13;4476951;31;33491;-81
2022/06/05 08:02:10;;;;;;;;;;;;;;;27.80;47.39;99372.31;4482659;32;33685;-82
2022/06/05 08:04:38;;;;;;;;;;;;;;;27.99;47.07;99372.16;4478649;32;34533;-83
2022/06/05 08:07:07;;;;;;;;;;;;;;;27.89;47.01;99372.66;4479757;32;35170;-84
2022/06/05 08:09:35;;;;;;;;;;;;;;;28.14;47.22;99377.47;4466773;32;33711;-83
2022/06/05 08:12:03;;;;;;;;;;;;;;;28.53;45.19;99368.22;4475678;32;33661;-81
2022/06/05 08:14:35;;;;;;;;;;;;;;;27.18;48.39;99366.72;4480125;32;33876;-82
2022/06/05 08:17:04;;;;;;;;;;;;;;;27.52;48.12;99371.13;4468560;32;35048;-81
2022/06/05 08:19:36;;;;;;;;;;;;;;;27.13;48.77;99368.75;4458998;32;33752;-80
2022/06/05 08:22:04;;;;;;;;;;;;;;;26.85;49.04;99366.59;4482933;32;34271;-81
2022/06/05 08:24:31;;;;;;;;;;;;;;;27.41;48.75;99368.16;4475157;32;34136;-82
2022/06/05 08:27:06;;;;;;;;;;;;;;;28.08;46.66;99374.31;4468134;32;34605;-80
2022/06/05 08:29:33;;;;;;;;;;;;;;;28.24;46.55;99376.97;4473134;31;33484;-79
2022/06/05 08:32:00;;;;;;;;;;;;;;;27.57;47.84;99374.38;4499123;31;34762;-80
2022/06/05 08:34:28;;;;;;;;;;;;;;;27.48;48.31;99379.34;4492130;31;34146;-80
2022/06/05 08:42:31;;;;;;;;;;;;;;;26.62;49.12;99391.69;4482627;32;34048;-81
2022/06/05 08:45:10;;;;;;;;;;;;;;;27.08;49.01;99379.59;4469314;32;34580;-80
2022/06/05 08:47:57;;;;;;;;;;;;;;;27.25;48.39;99377.91;4464215;32;34971;-80
2022/06/05 08:50:38;;;;;;;;;;;;;;;28.02;48.56;99383.50;4482167;32;31911;-80
2022/06/05 08:53:11;;;;;;;;;;;;;;;27.27;48.17;99391.97;4468463;32;34373;-81
2022/06/05 08:55:42;;;;;;;;;;;;;;;27.75;47.25;99385.03;4482537;32;34440;-81
2022/06/05 08:58:24;;;;;;;;;;;;;;;27.30;48.80;99375.84;4466836;32;34485;-82
2022/06/05 09:00:55;;;;;;;;;;;;;;;26.44;50.08;99382.78;4466722;32;33719;-79
2022/06/05 09:03:23;;;;;;;;;;;;;;;27.57;47.87;99374.38;4471035;32;34998;-78
2022/06/05 09:05:51;;;;;;;;;;;;;;;27.44;47.93;99362.69;4478480;32;34422;-80
2022/06/05 09:08:28;;;;;;;;;;;;;;;27.99;46.97;99369.47;4471011;32;33606;-80
2022/06/05 09:10:59;;;;;;;;;;;;;;;28.93;44.54;99354.31;4467258;32;33254;-80
2022/06/05 09:13:36;;;;;;;;;;;;;;;27.38;47.80;99360.31;4470376;32;34826;-81
2022/06/05 09:16:05;;;;;;;;;;;;;;;27.08;49.38;99362.75;4484323;32;34406;-81
2022/06/05 09:18:35;;;;;;;;;;;;;;;27.88;47.39;99362.97;4470400;32;34597;-78
2022/06/05 09:21:05;;;;;;;;;;;;;;;26.84;49.25;99370.22;4469187;32;33550;-80
2022/06/05 09:23:41;;;;;;;;;;;;;;;28.33;46.66;99365.78;4470267;32;34160;-82
2022/06/05 09:26:28;;;;;;;;;;;;;;;27.77;47.41;99372.47;4484491;32;35228;-82
2022/06/05 09:28:59;;;;;;;;;;;;;;;28.08;46.63;99367.19;4468196;32;34302;-80
2022/06/05 09:31:32;;;;;;;;;;;;;;;28.50;45.65;99357.72;4469255;32;33782;-82
2022/06/05 09:34:01;;;;;;;;;;;;;;;28.64;45.72;99362.25;4481857;32;34184;-80
2022/06/05 09:36:28;;;;;;;;;;;;;;;29.68;43.30;99361.31;4469952;32;34495;-79
2022/06/05 09:38:59;;;;;;;;;;;;;;;28.94;44.83;99367.56;4484017;32;35295;-80
2022/06/05 09:41:39;;;;;;;;;;;;;;;29.54;43.15;99370.16;4483117;32;33169;-81
2022/06/05 09:44:32;;;;;;;;;;;;;;;28.92;45.10;99366.81;4483727;32;33980;-81
2022/06/05 09:47:01;;;;;;;;;;;;;;;29.29;43.60;99372.66;4466926;32;34271;-82
2022/06/05 09:49:28;;;;;;;;;;;;;;;29.15;43.81;99378.81;4454313;32;34229;-81
2022/06/05 09:51:55;;;;;;;;;;;;;;;28.65;45.03;99387.97;4468528;32;33440;-82
2022/06/05 09:54:30;;;;;;;;;;;;;;;28.93;44.25;99381.88;4482310;32;34258;-82
2022/06/05 10:00:15;;;;;;;;;;;;;;;27.61;45.90;99399.91;4482605;32;34723;-81
2022/06/05 10:02:43;;;;;;;;;;;;;;;28.55;44.10;99398.31;4469087;32;33777;-80
2022/06/05 10:05:12;;;;;;;;;;;;;;;28.41;45.19;99397.38;4469681;32;35087;-81
2022/06/05 10:07:48;;;;;;;;;;;;;;;28.02;44.84;99391.50;4484234;32;34448;-81
2022/06/05 10:10:16;;;;;;;;;;;;;;;29.15;44.09;99388.63;4481679;32;35372;-80
2022/06/05 10:12:47;;;;;;;;;;;;;;;28.62;44.27;99399.69;4463309;32;33136;-81
2022/06/05 10:15:24;;;;;;;;;;;;;;;28.54;44.23;99391.25;4469676;32;33631;-81
2022/06/05 10:17:57;;;;;;;;;;;;;;;28.76;44.05;99401.56;4468536;32;34391;-80
2022/06/05 10:20:40;;;;;;;;;;;;;;;27.80;46.10;99394.47;4468651;32;35390;-82
2022/06/05 10:23:10;;;;;;;;;;;;;;;27.10;46.75;99392.84;4478294;32;33623;-82
2022/06/05 10:25:49;;;;;;;;;;;;;;;27.75;45.58;99388.53;4482375;32;34212;-82
2022/06/05 10:28:20;;;;;;;;;;;;;;;28.03;45.47;99387.03;4483214;32;34600;-82
2022/06/05 10:30:53;;;;;;;;;;;;;;;27.29;46.29;99382.13;4477429;32;35232;-81
2022/06/05 10:33:24;;;;;;;;;;;;;;;28.30;44.94;99377.50;4474228;32;33620;-81
2022/06/05 10:36:03;;;;;;;;;;;;;;;28.35;44.02;99370.09;4468936;32;34371;-80
2022/06/05 10:38:49;;;;;;;;;;;;;;;29.54;41.77;99362.16;4480025;32;34545;-80
2022/06/05 10:41:31;;;;;;;;;;;;;;;30.21;40.47;99357.06;4480735;32;34557;-81
2022/06/05 10:44:08;;;;;;;;;;;;;;;30.57;38.46;99350.22;4475334;32;34456;-80
2022/06/05 10:46:36;;;;;;;;;;;;;;;28.82;39.47;99345.13;4479177;32;35582;-82
2022/06/05 10:49:09;;;;;;;;;;;;;;;29.79;39.29;99341.94;4468626;32;34264;-82
2022/06/05 10:51:42;;;;;;;;;;;;;;;30.53;38.32;99338.91;4477737;32;34371;-80
2022/06/05 10:54:22;;;;;;;;;;;;;;;29.12;39.29;99338.94;4454060;32;33636;-81
2022/06/05 10:56:54;;;;;;;;;;;;;;;29.08;38.46;99332.94;4480302;32;34980;-81
2022/06/05 10:59:47;;;;;;;;;;;;;;;29.34;39.86;99338.50;4469416;32;34099;-81
2022/06/05 11:02:34;;;;;;;;;;;;;;;29.05;39.20;99338.44;4457549;32;35226;-80
2022/06/05 11:05:06;;;;;;;;;;;;;;;28.95;38.28;99331.09;4468278;32;33257;-80
2022/06/05 11:07:34;;;;;;;;;;;;;;;29.23;37.80;99325.78;4468578;32;34623;-80
2022/06/05 11:10:21;;;;;;;;;;;;;;;30.05;37.14;99329.59;4472597;32;34859;-83
2022/06/05 11:15:48;;;;;;;;;;;;;;;30.24;37.02;99323.91;4458494;32;33539;-78
2022/06/05 11:18:24;;;;;;;;;;;;;;;28.84;37.57;99339.72;4468608;32;33831;-80
2022/06/05 11:20:56;;;;;;;;;;;;;;;29.16;37.03;99323.59;4473125;32;34985;-80
2022/06/05 11:23:25;;;;;;;;;;;;;;;29.29;37.97;99335.25;4468091;32;33934;-80
2022/06/05 11:26:12;;;;;;;;;;;;;;;29.48;36.51;99341.19;4473436;31;33388;-81
2022/06/05 11:28:46;;;;;;;;;;;;;;;29.75;36.44;99337.75;4475826;31;34391;-81
2022/06/05 11:31:20;;;;;;;;;;;;;;;30.66;37.63;99338.06;4467828;32;34288;-80
2022/06/05 11:33:52;;;;;;;;;;;;;;;31.11;34.60;99330.56;4459757;32;34056;-81
2022/06/05 11:36:24;;;;;;;;;;;;;;;30.65;35.86;99325.63;4459527;32;33440;-79
2022/06/05 11:38:54;;;;;;;;;;;;;;;30.22;34.47;99341.88;4468020;32;33626;-80
2022/06/05 11:41:31;;;;;;;;;;;;;;;30.38;33.89;99331.88;4474666;32;35452;-79
2022/06/05 11:44:16;;;;;;;;;;;;;;;29.69;36.03;99322.09;4480944;32;34614;-79
2022/06/05 11:47:04;;;;;;;;;;;;;;;29.96;35.96;99325.66;4474791;32;33247;-82
2022/06/05 11:49:37;;;;;;;;;;;;;;;29.15;36.48;99321.88;4477778;32;34839;-81
2022/06/05 11:52:25;;;;;;;;;;;;;;;29.75;36.54;99321.72;4473525;32;35325;-80
2022/06/05 11:55:04;;;;;;;;;;;;;;;29.13;36.53;99318.44;4464287;32;34242;-80
2022/06/05 11:57:50;;;;;;;;;;;;;;;30.40;35.85;99311.25;4453837;32;33697;-80
2022/06/05 12:00:20;;;;;;;;;;;;;;;30.20;35.47;99317.06;4482596;32;34217;-80
2022/06/05 12:03:05;;;;;;;;;;;;;;;29.90;36.74;99304.69;4467819;32;35230;-81
2022/06/05 12:05:38;;;;;;;;;;;;;;;30.66;36.54;99300.59;4468336;32;35358;-83
2022/06/05 12:08:10;;;;;;;;;;;;;;;30.89;35.06;99283.84;4482875;32;33735;-80
2022/06/05 12:10:48;;;;;;;;;;;;;;;30.38;35.33;99278.38;4450697;32;32674;-80
2022/06/05 12:13:34;;;;;;;;;;;;;;;30.34;36.32;99284.87;4441019;32;34204;-79
2022/06/05 12:16:02;;;;;;;;;;;;;;;30.28;35.20;99282.66;4448068;32;33984;-83
2022/06/05 12:18:31;;;;;;;;;;;;;;;30.15;34.70;99284.37;4461075;32;33795;-78
2022/06/05 12:21:05;;;;;;;;;;;;;;;29.58;35.35;99283.56;4444590;32;34888;-81
2022/06/05 12:23:35;;;;;;;;;;;;;;;29.53;35.48;99274.09;4451728;32;34145;-81
2022/06/05 12:26:16;;;;;;;;;;;;;;;29.15;36.59;99279.19;4437998;32;34476;-80
2022/06/05 12:28:45;;;;;;;;;;;;;;;30.03;35.25;99276.19;4466765;32;34434;-80
2022/06/05 12:31:34;;;;;;;;;;;;;;;30.41;35.02;99266.63;4462301;32;35712;-79
2022/06/05 12:34:03;;;;;;;;;;;;;;;30.85;34.42;99255.59;4456578;32;33517;-81
2022/06/05 12:36:36;;;;;;;;;;;;;;;31.47;34.76;99255.66;4465010;32;34428;-82
2022/06/05 12:39:23;;;;;;;;;;;;;;;30.52;33.59;99258.72;4438699;32;33296;-79
2022/06/05 12:42:02;;;;;;;;;;;;;;;30.96;32.65;99260.19;4455102;32;33909;-80
2022/06/05 12:44:34;;;;;;;;;;;;;;;29.90;34.08;99258.41;4450795;32;35181;-80
2022/06/05 12:47:06;;;;;;;;;;;;;;;30.69;33.64;99246.87;4448311;32;34590;-80
2022/06/05 12:49:53;;;;;;;;;;;;;;;29.94;33.83;99258.09;4450622;32;33406;-80
2022/06/05 12:52:20;;;;;;;;;;;;;;;30.70;33.35;99240.56;4466902;32;34233;-79
2022/06/05 12:54:50;;;;;;;;;;;;;;;31.66;32.89;99246.28;4466598;32;35028;-79
2022/06/05 12:57:57;;;;;;;;;;;;;;;31.36;32.14;99244.84;4476725;32;35060;-80
2022/06/05 13:00:42;;;;;;;;;;;;;;;30.28;33.76;99239.84;4459952;32;34432;-78
2022/06/05 13:03:28;;;;;;;;;;;;;;;29.81;34.15;99247.37;4464096;32;35067;-81
2022/06/05 13:05:57;;;;;;;;;;;;;;;30.02;35.86;99239.72;4465294;32;34602;-80
2022/06/05 13:08:25;;;;;;;;;;;;;;;30.31;33.46;99228.94;4446432;32;34004;-81
2022/06/05 13:11:02;;;;;;;;;;;;;;;30.37;33.96;99231.19;4477138;32;33610;-81
2022/06/05 13:13:29;;;;;;;;;;;;;;;30.56;33.87;99217.41;4480620;32;34974;-80
2022/06/05 13:15:58;;;;;;;;;;;;;;;30.81;32.47;99230.00;4474670;32;35279;-80
2022/06/05 13:18:38;;;;;;;;;;;;;;;30.75;33.17;99230.41;4480482;32;33900;-80
2022/06/05 13:21:17;;;;;;;;;;;;;;;30.24;32.99;99230.31;4472781;32;34677;-80
2022/06/05 13:23:47;;;;;;;;;;;;;;;30.74;33.28;99231.37;4452601;32;34328;-79
2022/06/05 13:26:22;;;;;;;;;;;;;;;30.33;33.41;99219.00;4478827;32;35085;-80
2022/06/05 13:28:55;;;;;;;;;;;;;;;30.28;33.86;99213.09;4473837;32;34044;-80